Latest Weather Observations for Casino

IDN60801

Issued at 7:32 am EST Sunday 24 September 2017 (issued every 30 minutes, with the page automatically refreshed every 10 minutes)

About weather observations | Map of weather stations | Latest weather observations for NSW | Other Formats
Station Details ID: 058208 Name: CASINO AIRPORT AWS Lat: -28.88 Lon: 153.06 Height: 20.9 m
Data from the previous 72 hours. | See also: Recent months at Casino
Date/Time
EST
Temp
°C
App
Temp
°C
Dew
Point
°C
Rel
Hum
%
Delta-T
°C
Wind Press
QNH
hPa
Press
MSL
hPa
Rain since
9am
mm
Dir  Spd
km/h
Gust
km/h
Spd
kts
Gust
kts
24/07:30am 25.1 21.6 13.3 48 6.9 NNW 24 35 13 19 1010.7 1010.7 0.0
24/07:00am 23.9 20.4 13.4 51 6.1 NNW 24 32 13 17 1010.5 1010.5 0.0
24/06:30am 23.5 20.8 13.4 53 5.9 NW 20 28 11 15 1010.4 1010.4 0.0
24/06:00am 23.0 20.8 13.2 54 5.7 NNW 17 26 9 14 1009.9 1009.9 0.0
24/05:30am 22.5 20.4 13.6 57 5.2 NNW 17 22 9 12 1009.7 1009.7 0.0
24/05:00am 22.7 20.7 14.0 58 5.1 NNW 17 26 9 14 1009.6 1009.6 0.0
24/04:30am 22.7 20.3 13.7 56 5.2 NNW 19 28 10 15 1009.5 1009.5 0.0
24/04:00am 23.3 20.8 14.0 56 5.5 NNW 20 32 11 17 1009.3 1009.3 0.0
24/03:30am 23.8 21.3 14.2 55 5.7 NNW 20 32 11 17 1009.3 1009.3 0.0
24/03:00am 23.9 21.5 13.7 53 6.0 NNW 19 26 10 14 1009.2 1009.2 0.0
24/02:30am 24.1 21.3 14.2 54 5.8 NNW 22 30 12 16 1009.3 1009.3 0.0
24/02:00am 24.2 20.5 14.0 53 6.0 NNW 26 35 14 19 1009.5 1009.5 0.0
24/01:30am 24.8 21.4 13.7 50 6.5 NNW 24 32 13 17 1009.7 1009.7 0.0
24/01:00am 25.4 21.3 13.9 49 6.8 NNW 28 37 15 20 1009.8 1009.8 0.0
24/12:30am 24.8 21.2 14.3 52 6.2 NW 26 35 14 19 1010.1 1010.1 0.0
24/12:00am 25.4 22.2 14.2 50 6.7 NNW 24 35 13 19 1010.3 1010.3 0.0
 
Date/Time
EST
Temp
°C
App
Temp
°C
Dew
Point
°C
Rel
Hum
%
Delta-T
°C
Wind Press
QNH
hPa
Press
MSL
hPa
Rain since
9am
mm
Dir  Spd
km/h
Gust
km/h
Spd
kts
Gust
kts
23/11:30pm 24.0 23.0 14.7 56 5.5 NNW 13 26 7 14 1010.5 1010.5 0.0
23/11:00pm 23.3 21.8 14.3 57 5.3 N 15 20 8 11 1010.6 1010.6 0.0
23/10:30pm 24.0 22.8 14.1 54 5.8 NNW 13 20 7 11 1010.8 1010.8 0.0
23/10:00pm 24.4 22.5 14.2 53 6.0 NNW 17 30 9 16 1010.9 1010.9 0.0
23/09:30pm 25.2 22.8 14.3 50 6.5 NNW 20 32 11 17 1011.1 1011.1 0.0
23/09:00pm 25.4 22.6 14.2 50 6.6 NNW 22 30 12 16 1011.1 1011.1 0.0
23/08:30pm 25.5 23.2 14.0 49 6.8 NNW 19 26 10 14 1011.2 1011.2 0.0
23/08:00pm 26.4 24.1 14.2 47 7.3 NNW 19 26 10 14 1011.0 1011.0 0.0
23/07:30pm 26.4 24.6 13.2 44 7.7 NW 15 20 8 11 1010.6 1010.6 0.0
23/07:00pm 24.0 24.9 12.9 50 6.4 CALM 0 0 0 0 1010.2 1010.2 0.0
23/06:30pm 25.2 24.8 12.4 45 7.4 N 6 7 3 4 1009.9 1009.9 0.0
23/06:00pm 27.0 25.9 11.9 39 8.7 N 9 13 5 7 1009.6 1009.6 0.0
23/05:30pm 29.2 26.8 11.3 33 10.3 N 15 19 8 10 1009.4 1009.4 0.0
23/05:00pm 30.8 27.6 11.2 30 11.4 N 19 24 10 13 1009.2 1009.2 0.0
23/04:30pm 32.2 29.1 10.3 26 12.6 N 17 24 9 13 1009.0 1009.0 0.0
23/04:00pm 33.2 28.9 9.3 23 13.6 N 22 28 12 15 1008.9 1008.9 0.0
23/03:30pm 34.3 31.2 8.8 21 14.4 N 15 20 8 11 1008.8 1008.8 0.0
23/03:00pm 34.2 29.6 6.5 18 15.1 NNE 20 26 11 14 1008.9 1008.9 0.0
23/02:30pm 34.6 31.4 9.8 22 14.3 N 17 24 9 13 1009.2 1009.2 0.0
23/02:00pm 34.3 31.0 9.5 22 14.2 N 17 24 9 13 1009.4 1009.4 0.0
23/01:30pm 33.7 30.4 9.7 23 13.7 N 17 24 9 13 1009.9 1009.9 0.0
23/01:00pm 33.9 31.5 9.9 23 13.8 N 13 20 7 11 1010.4 1010.4 0.0
23/12:30pm 33.7 30.8 10.9 25 13.3 N 17 22 9 12 1010.9 1010.9 0.0
23/12:00pm 32.3 30.1 12.0 29 12.0 NNW 15 22 8 12 1011.5 1011.5 0.0
23/11:30am 31.2 28.9 11.6 30 11.4 N 15 20 8 11 1012.1 1012.1 0.0
23/11:00am 30.7 28.5 12.1 32 10.9 N 15 22 8 12 1012.7 1012.7 0.0
23/10:30am 30.1 27.8 11.6 32 10.7 NNW 15 24 8 13 1013.4 1013.4 0.0
23/10:00am 28.5 26.2 11.6 35 9.7 NNW 15 22 8 12 1014.0 1013.9 0.0
23/09:30am 28.0 25.1 12.4 38 9.1 NNW 19 24 10 13 1014.3 1014.2 0.0
23/09:00am 26.8 23.8 12.1 40 8.5 NNW 19 26 10 14 1014.8 1014.7 20.0
23/08:30am 25.4 22.8 11.9 43 7.7 NNW 17 22 9 12 1014.9 1014.8 20.0
23/08:00am 22.8 21.9 12.7 53 5.8 NW 9 13 5 7 1015.2 1015.1 20.0
23/07:30am 20.2 19.1 11.9 59 4.6 WNW 9 11 5 6 1015.2 1015.1 20.0
23/07:00am 19.0 17.9 12.0 64 3.9 WNW 9 15 5 8 1014.9 1014.8 20.0
23/06:30am 18.3 17.2 12.1 67 3.4 NW 9 13 5 7 1014.5 1014.4 20.0
23/06:00am 16.8 15.7 11.9 73 2.7 WNW 9 13 5 7 1014.3 1014.2 20.0
23/05:30am 16.1 14.9 11.5 74 2.5 W 9 11 5 6 1014.4 1014.3 20.0
23/05:00am 16.6 15.7 11.5 72 2.8 WNW 7 11 4 6 1014.2 1014.1 20.0
23/04:30am 16.9 15.6 11.4 70 3.0 NW 9 13 5 7 1014.1 1014.0 20.0
23/04:00am 17.3 15.8 11.8 70 3.0 WNW 11 15 6 8 1013.8 1013.7 20.0
23/03:30am 17.3 15.8 12.0 71 2.9 W 11 15 6 8 1013.8 1013.7 20.0
23/03:00am 18.0 16.2 12.0 68 3.3 WNW 13 15 7 8 1013.9 1013.8 20.0
23/02:30am 18.0 16.8 11.6 66 3.5 NW 9 17 5 9 1014.0 1013.9 20.0
23/02:00am 18.0 16.4 11.6 66 3.5 NW 11 15 6 8 1014.3 1014.2 20.0
23/01:30am 18.3 17.1 11.6 65 3.7 WNW 9 13 5 7 1014.7 1014.6 20.0
23/01:00am 19.1 17.8 11.2 60 4.3 WNW 9 11 5 6 1014.9 1014.8 20.0
23/12:30am 20.7 17.8 11.1 54 5.3 NNW 17 22 9 12 1014.9 1014.8 20.0
23/12:00am 21.3 17.9 11.1 52 5.6 NW 20 30 11 16 1015.0 1014.9 20.0
 
Date/Time
EST
Temp
°C
App
Temp
°C
Dew
Point
°C
Rel
Hum
%
Delta-T
°C
Wind Press
QNH
hPa
Press
MSL
hPa
Rain since
9am
mm
Dir  Spd
km/h
Gust
km/h
Spd
kts
Gust
kts
22/11:30pm 21.1 18.2 10.9 52 5.6 NW 17 22 9 12 1014.9 1014.8 20.0
22/11:00pm 19.2 18.1 10.7 58 4.6 NE 7 11 4 6 1015.0 1014.9 20.0
22/10:30pm 20.9 19.1 10.7 52 5.6 NNW 11 15 6 8 1014.8 1014.7 20.0
22/10:00pm 20.9 19.3 11.5 55 5.2 NNW 11 17 6 9 1014.7 1014.6 20.0
22/09:30pm 21.5 18.7 11.5 53 5.6 NNW 17 28 9 15 1014.4 1014.3 20.0
22/09:00pm 21.4 18.4 12.5 57 5.0 NNW 20 30 11 16 1014.3 1014.2 20.0
22/08:30pm 21.6 18.6 12.7 57 5.1 NW 20 30 11 16 1014.1 1014.0 20.0
22/08:00pm 21.9 18.8 13.3 58 4.9 NW 22 30 12 16 1014.0 1013.9 20.0
22/07:30pm 22.1 20.5 15.9 68 3.7 NNW 19 24 10 13 1013.7 1013.6 19.6
22/07:00pm 21.5 18.8 15.6 69 3.5 N 24 28 13 15 1012.8 1012.8 15.4
22/06:30pm 19.0 15.3 13.8 72 3.0 NNE 26 56 14 30 1013.1 1013.1 10.4
22/06:24pm 18.2 12.0 11.5 65 3.7 NNW 35 65 19 35 1014.2 1014.1 9.4
22/06:23pm 17.7 11.4 11.0 65 3.6 NNW 35 65 19 35 1014.7 1014.6 9.2
22/06:18pm 20.7 17.5 13.2 62 4.3 N 22 57 12 31 1014.2 1014.1 8.0
22/06:00pm 24.4 24.2 17.6 66 4.2 SSE 15 28 8 15 1013.4 1013.4 0.2
22/05:30pm 27.5 26.3 11.5 37 9.2 NNE 9 15 5 8 1011.8 1011.8 0.0
22/05:00pm 29.2 26.0 11.3 33 10.3 N 19 28 10 15 1011.4 1011.4 0.0
22/04:30pm 30.7 27.5 11.1 30 11.3 N 19 26 10 14 1011.1 1011.1 0.0
22/04:00pm 31.5 27.9 11.8 30 11.6 N 22 32 12 17 1010.8 1010.8 0.0
22/03:30pm 31.6 27.9 11.4 29 11.8 N 22 32 12 17 1010.8 1010.8 0.0
22/03:00pm 31.7 28.4 11.5 29 11.8 N 20 30 11 16 1011.0 1011.0 0.0
22/02:30pm 31.7 28.5 12.0 30 11.6 N 20 37 11 20 1011.4 1011.4 0.0
22/02:00pm 31.8 28.9 11.0 28 12.1 NNW 17 30 9 16 1011.9 1011.9 0.0
22/01:30pm 31.7 28.6 11.5 29 11.8 NNE 19 28 10 15 1012.2 1012.2 0.0
22/01:00pm 30.7 27.6 11.6 31 11.1 N 19 32 10 17 1012.7 1012.7 0.0
22/12:30pm 30.1 26.9 13.0 35 10.1 N 22 30 12 16 1013.3 1013.3 0.0
22/12:00pm 29.8 26.2 13.1 36 9.9 N 24 32 13 17 1014.2 1014.1 0.0
22/11:30am 28.7 25.6 13.4 39 9.1 NNW 22 43 12 23 1015.0 1014.9 0.0
22/11:00am 28.1 25.1 13.6 41 8.6 N 22 30 12 16 1015.6 1015.5 0.0
22/10:30am 27.7 24.9 13.3 41 8.5 NNW 20 32 11 17 1016.1 1016.0 0.0
22/10:00am 27.0 23.6 13.7 44 7.9 NNW 24 33 13 18 1016.5 1016.4 0.0
22/09:30am 25.3 24.9 16.2 57 5.6 N 13 22 7 12 1017.1 1017.0 0.0
22/09:00am 23.0 23.5 15.6 63 4.4 NNE 7 11 4 6 1017.6 1017.5 0.0
22/08:30am 21.3 22.7 15.4 69 3.5 SSW 2 7 1 4 1018.0 1017.9 0.0
22/08:00am 18.8 20.4 14.9 78 2.3 CALM 0 0 0 0 1017.9 1017.8 0.0
22/07:30am 15.8 17.2 14.3 91 0.9 CALM 0 0 0 0 1018.0 1017.9 0.0
22/07:00am 13.8 14.0 12.9 94 0.5 WSW 4 7 2 4 1017.9 1017.8 0.0
22/06:30am 12.0 12.4 11.1 94 0.5 CALM 0 2 0 1 1017.7 1017.6 0.0
22/06:00am 10.5 10.0 9.4 93 0.5 SSW 2 6 1 3 1017.4 1017.3 0.0
22/05:30am 10.8 10.8 9.7 93 0.6 CALM 0 0 0 0 1017.2 1017.1 0.0
22/05:00am 10.3 10.1 9.2 93 0.5 CALM 0 0 0 0 1016.9 1016.8 0.0
22/04:30am 10.6 10.5 9.5 93 0.6 CALM 0 0 0 0 1016.8 1016.7 0.0
22/04:00am 10.6 10.4 9.2 91 0.7 CALM 0 0 0 0 1016.4 1016.3 0.0
22/03:30am 11.4 11.5 10.3 93 0.6 CALM 0 0 0 0 1016.4 1016.3 0.0
22/03:00am 11.3 11.4 10.0 92 0.7 CALM 0 0 0 0 1016.3 1016.2 0.0
22/02:30am 11.3 10.9 9.9 91 0.7 WSW 2 6 1 3 1016.4 1016.3 0.0
22/02:00am 11.7 10.7 10.4 92 0.7 SW 6 7 3 4 1016.6 1016.5 0.0
22/01:30am 12.0 12.2 10.6 91 0.7 CALM 0 0 0 0 1016.8 1016.7 0.0
22/01:00am 12.7 13.1 11.1 90 0.8 CALM 0 0 0 0 1016.9 1016.8 0.0
22/12:30am 13.1 13.5 11.3 89 1.0 CALM 0 0 0 0 1017.0 1016.9 0.0
22/12:00am 13.5 13.9 11.4 87 1.1 CALM 0 0 0 0 1017.2 1017.1 0.0
 
Date/Time
EST
Temp
°C
App
Temp
°C
Dew
Point
°C
Rel
Hum
%
Delta-T
°C
Wind Press
QNH
hPa
Press
MSL
hPa
Rain since
9am
mm
Dir  Spd
km/h
Gust
km/h
Spd
kts
Gust
kts
21/11:30pm 13.7 14.1 11.2 85 1.3 CALM 0 0 0 0 1017.4 1017.3 0.0
21/11:00pm 14.4 14.9 11.7 84 1.4 CALM 0 0 0 0 1017.4 1017.3 0.0
21/10:30pm 15.5 16.0 11.7 78 2.1 CALM 0 0 0 0 1017.2 1017.1 0.0
21/10:00pm 18.3 17.4 13.8 75 2.6 N 11 15 6 8 1017.2 1017.1 0.0
21/09:30pm 17.8 17.5 14.5 81 1.9 NNW 9 15 5 8 1017.2 1017.1 0.0
21/09:00pm 16.1 16.7 13.0 82 1.7 ESE 2 6 1 3 1017.0 1016.9 0.0
21/08:30pm 16.2 15.7 12.7 80 1.9 ESE 7 9 4 5 1016.7 1016.6 0.0
21/08:00pm 17.4 17.4 13.5 78 2.2 ESE 6 7 3 4 1016.4 1016.3 0.0
21/07:30pm 18.4 18.2 13.7 74 2.7 NE 7 11 4 6 1016.2 1016.1 0.0
21/07:00pm 18.7 17.8 13.6 72 2.9 E 11 19 6 10 1015.6 1015.5 0.0
21/06:30pm 19.6 18.3 13.8 69 3.3 E 13 19 7 10 1015.2 1015.1 0.0
21/06:00pm 20.4 18.3 13.6 65 3.9 E 17 26 9 14 1014.9 1014.8 0.0
21/05:30pm 22.2 19.5 13.5 57 5.0 ENE 20 28 11 15 1014.5 1014.4 0.0
21/05:00pm 24.6 21.3 12.9 48 6.8 ENE 22 30 12 16 1014.1 1014.0 0.0
21/04:30pm 27.0 24.7 7.5 29 10.4 NE 9 15 5 8 1013.9 1013.8 0.0
21/04:00pm 27.1 24.8 7.5 29 10.5 NE 9 13 5 7 1013.9 1013.8 0.0
21/03:30pm 27.7 25.4 7.5 28 10.8 ENE 9 19 5 10 1014.1 1014.0 0.0
21/03:00pm 27.5 25.9 7.9 29 10.6 S 6 11 3 6 1014.3 1014.2 0.0
21/02:30pm 27.4 24.5 8.3 30 10.4 ENE 13 20 7 11 1014.5 1014.4 0.0
21/02:00pm 27.2 24.6 7.6 29 10.5 NNW 11 22 6 12 1014.9 1014.8 0.0
21/01:30pm 27.4 24.8 7.8 29 10.5 NNE 11 24 6 13 1015.3 1015.2 0.0
21/01:00pm 27.5 24.9 7.9 29 10.6 N 11 22 6 12 1015.8 1015.7 0.0
21/12:30pm 26.1 23.7 7.2 30 10.0 W 9 17 5 9 1016.4 1016.3 0.0
21/12:00pm 26.5 23.3 7.0 29 10.3 NW 13 22 7 12 1017.0 1016.9 0.0
21/11:30am 25.3 21.5 6.0 29 9.9 NW 15 28 8 15 1017.6 1017.5 0.0
21/11:00am 25.0 22.7 10.5 40 8.1 NW 13 19 7 10 1018.2 1018.1 0.0
21/10:30am 23.4 20.4 10.5 44 7.1 NW 17 28 9 15 1018.8 1018.7 0.0
21/10:00am 23.3 20.4 12.3 50 6.2 N 19 28 10 15 1019.1 1019.0 0.0
21/09:30am 21.4 18.9 12.3 56 5.1 NNW 17 24 9 13 1019.5 1019.4 0.0
21/09:00am 20.0 18.5 11.8 59 4.5 NW 11 15 6 8 1019.7 1019.6 0.0
21/08:30am 19.1 17.5 11.7 62 4.1 WNW 11 15 6 8 1020.0 1019.9 0.0
21/08:00am 17.7 16.3 12.2 70 3.0 NNW 11 15 6 8 1020.0 1019.9 0.0

Other Formats:

Comma delimited format used in spreadsheet applications
http://www.bom.gov.au/fwo/IDN60801/IDN60801.94573.axf

JavaScript Object Notation format (JSON) in row-major order
http://www.bom.gov.au/fwo/IDN60801/IDN60801.94573.json